Tarkington Prairie, Texas
Current Conditions -  °F | °C
As of 1:53 AM on Monday 26 Jan 2015 (Local Time) from KCXO Reporting Station
Clear Clear  
Wind Chill: 50°   Ceiling: Unl
Heat Index: 50°   Visibility: 10mi
Dew Point: 27°   Wind: 9mph
Humidity: 41%   Direction: 320°NW
Pressure: 30.18"   Gusts: NA
Location:  30.2945°N, 94.9711°W
Report Text: KCXO 260753Z AUTO 32008KT 10SM CLR 10/M03 A3018 RMK AO2 SLP219 T01001028
Loading
Personal Weather Stations






























Interactive Weather Map New forecast layout! Learn more

10-Day Weather Forecast

Advertisements
Track Severe Weather on mobile